Main page
METAR-TAF:

METAR-TAF

Airports :

Shillong Airport

Shillong, India

latitude: 25-42-13N, longitude: 091-58-43E, elevation: 887 m

Current weather observation

The report was made 11 hours and 34 minutes ago, at 11:30 UTC
Wind 2 kt from the South/Southeast
Temperature 19°C
Humidity 78%
Pressure 1018 hPa
Visibility: 3000 m
Scattered clouds at a height of 2000 ft
Broken clouds at a height of 8000 ft
mist

METAR: VEBI 041130Z 15002KT 3000 BR SCT020 BKN080 19/15 Q1018

Time: 04:34 (23:04 UTC)

Forecast

The report was made 15 hours and 4 minutes ago, at 08:00 UTC
Forecast valid from 04 at 09 UTC to 04 at 18 UTC
Wind 5 kt from the Southeast
Visibility: 5000 m
Scattered clouds at a height of 2000 ft
Broken clouds at a height of 10000 ft
haze
Becoming
from 04 at 13 UTC to 04 at 15 UTC
Wind kt from the North
Visibility: 3000 m
mist

TAF: VEBI 040800Z 0409/0418 14005KT 5000 HZ SCT020 BKN100 BECMG 0413/0415 00000KT 3000 BR

Weather observations and forecasts of more than 4000 airports (METAR and TAF reports).

The available stations are represented by yellow and red dots on the map.

Hover mouse over dot to see the name of the station.

Then click to see weather observations and forecasts.

To change the map : click on the green buttons with a black cross to zoom in, on the green button with a dash to zoom out, or on the green arrows for adjacent maps.


METAR-TAF: